sensor_id;sensor_type;location;lat;lon;timestamp;temperature;humidity
41816;DHT22;27814;53.452;-6.180;2022-08-25T00:01:58;18.90;92.90
41816;DHT22;27814;53.452;-6.180;2022-08-25T00:04:29;18.90;93.00
41816;DHT22;27814;53.452;-6.180;2022-08-25T00:07:00;18.80;93.00
41816;DHT22;27814;53.452;-6.180;2022-08-25T00:09:30;18.80;93.10
41816;DHT22;27814;53.452;-6.180;2022-08-25T00:11:59;18.80;93.10
41816;DHT22;27814;53.452;-6.180;2022-08-25T00:14:31;18.80;93.10
41816;DHT22;27814;53.452;-6.180;2022-08-25T00:17:01;18.80;93.20
41816;DHT22;27814;53.452;-6.180;2022-08-25T00:19:31;18.80;93.20
41816;DHT22;27814;53.452;-6.180;2022-08-25T00:22:01;18.70;93.20
41816;DHT22;27814;53.452;-6.180;2022-08-25T00:24:29;18.70;93.20
41816;DHT22;27814;53.452;-6.180;2022-08-25T00:26:58;18.70;93.30
41816;DHT22;27814;53.452;-6.180;2022-08-25T00:29:28;18.70;93.30
41816;DHT22;27814;53.452;-6.180;2022-08-25T00:31:58;18.70;93.40
41816;DHT22;27814;53.452;-6.180;2022-08-25T00:34:30;18.70;93.40
41816;DHT22;27814;53.452;-6.180;2022-08-25T00:36:59;18.60;93.40
41816;DHT22;27814;53.452;-6.180;2022-08-25T00:39:28;18.60;93.40
41816;DHT22;27814;53.452;-6.180;2022-08-25T00:41:57;18.60;93.40
41816;DHT22;27814;53.452;-6.180;2022-08-25T00:44:27;18.60;93.50
41816;DHT22;27814;53.452;-6.180;2022-08-25T00:46:58;18.50;93.50
41816;DHT22;27814;53.452;-6.180;2022-08-25T00:49:31;18.50;93.60
41816;DHT22;27814;53.452;-6.180;2022-08-25T00:52:03;18.50;93.60
41816;DHT22;27814;53.452;-6.180;2022-08-25T00:54:34;18.40;93.60
41816;DHT22;27814;53.452;-6.180;2022-08-25T00:57:04;18.50;93.70
41816;DHT22;27814;53.452;-6.180;2022-08-25T00:59:33;18.40;93.70
41816;DHT22;27814;53.452;-6.180;2022-08-25T01:02:03;18.40;93.70
41816;DHT22;27814;53.452;-6.180;2022-08-25T01:04:37;18.40;93.80
41816;DHT22;27814;53.452;-6.180;2022-08-25T01:07:05;18.40;93.80
41816;DHT22;27814;53.452;-6.180;2022-08-25T01:09:44;18.30;93.90
41816;DHT22;27814;53.452;-6.180;2022-08-25T01:12:13;18.30;93.90
41816;DHT22;27814;53.452;-6.180;2022-08-25T01:14:43;18.30;94.00
41816;DHT22;27814;53.452;-6.180;2022-08-25T01:17:13;18.30;94.10
41816;DHT22;27814;53.452;-6.180;2022-08-25T01:19:42;18.30;94.10
41816;DHT22;27814;53.452;-6.180;2022-08-25T01:22:12;18.20;94.20
41816;DHT22;27814;53.452;-6.180;2022-08-25T01:24:45;18.20;94.20
41816;DHT22;27814;53.452;-6.180;2022-08-25T01:27:14;18.20;94.30
41816;DHT22;27814;53.452;-6.180;2022-08-25T01:29:42;18.20;94.30
41816;DHT22;27814;53.452;-6.180;2022-08-25T01:32:12;18.20;94.30
41816;DHT22;27814;53.452;-6.180;2022-08-25T01:34:43;18.20;94.40
41816;DHT22;27814;53.452;-6.180;2022-08-25T01:37:14;18.10;94.40
41816;DHT22;27814;53.452;-6.180;2022-08-25T01:39:43;18.10;94.40
41816;DHT22;27814;53.452;-6.180;2022-08-25T01:42:27;18.10;94.40
41816;DHT22;27814;53.452;-6.180;2022-08-25T01:44:56;18.10;94.40
41816;DHT22;27814;53.452;-6.180;2022-08-25T01:47:24;18.10;94.40
41816;DHT22;27814;53.452;-6.180;2022-08-25T01:49:53;18.10;94.40
41816;DHT22;27814;53.452;-6.180;2022-08-25T01:52:27;18.10;94.40
41816;DHT22;27814;53.452;-6.180;2022-08-25T01:54:55;18.00;94.40
41816;DHT22;27814;53.452;-6.180;2022-08-25T01:57:24;18.10;94.50
41816;DHT22;27814;53.452;-6.180;2022-08-25T01:59:52;18.00;94.60
41816;DHT22;27814;53.452;-6.180;2022-08-25T02:02:20;18.00;94.70
41816;DHT22;27814;53.452;-6.180;2022-08-25T02:04:52;18.00;94.90
41816;DHT22;27814;53.452;-6.180;2022-08-25T02:07:20;18.00;95.00
41816;DHT22;27814;53.452;-6.180;2022-08-25T02:09:50;17.90;95.40
41816;DHT22;27814;53.452;-6.180;2022-08-25T02:12:19;17.90;95.10
41816;DHT22;27814;53.452;-6.180;2022-08-25T02:14:47;17.90;95.20
41816;DHT22;27814;53.452;-6.180;2022-08-25T02:17:16;17.90;95.30
41816;DHT22;27814;53.452;-6.180;2022-08-25T02:19:44;17.80;95.40
41816;DHT22;27814;53.452;-6.180;2022-08-25T02:22:12;17.90;95.50
41816;DHT22;27814;53.452;-6.180;2022-08-25T02:24:41;17.90;95.50
41816;DHT22;27814;53.452;-6.180;2022-08-25T02:27:10;17.90;95.50
41816;DHT22;27814;53.452;-6.180;2022-08-25T02:29:39;17.90;95.60
41816;DHT22;27814;53.452;-6.180;2022-08-25T02:32:09;17.90;95.60
41816;DHT22;27814;53.452;-6.180;2022-08-25T02:34:37;17.90;95.60
41816;DHT22;27814;53.452;-6.180;2022-08-25T02:37:07;17.80;95.60
41816;DHT22;27814;53.452;-6.180;2022-08-25T02:39:35;17.80;95.60
41816;DHT22;27814;53.452;-6.180;2022-08-25T02:42:04;17.90;95.60
41816;DHT22;27814;53.452;-6.180;2022-08-25T02:44:34;17.80;95.60
41816;DHT22;27814;53.452;-6.180;2022-08-25T02:47:03;17.80;95.60
41816;DHT22;27814;53.452;-6.180;2022-08-25T02:49:32;17.80;95.60
41816;DHT22;27814;53.452;-6.180;2022-08-25T02:52:01;17.80;95.70
41816;DHT22;27814;53.452;-6.180;2022-08-25T02:54:29;17.80;95.70
41816;DHT22;27814;53.452;-6.180;2022-08-25T02:56:57;17.80;95.80
41816;DHT22;27814;53.452;-6.180;2022-08-25T02:59:26;17.70;95.80
41816;DHT22;27814;53.452;-6.180;2022-08-25T03:01:56;17.70;95.90
41816;DHT22;27814;53.452;-6.180;2022-08-25T03:04:24;17.70;96.00
41816;DHT22;27814;53.452;-6.180;2022-08-25T03:06:53;17.70;96.00
41816;DHT22;27814;53.452;-6.180;2022-08-25T03:09:21;17.60;96.00
41816;DHT22;27814;53.452;-6.180;2022-08-25T03:11:49;17.60;96.00
41816;DHT22;27814;53.452;-6.180;2022-08-25T03:14:18;17.60;96.10
41816;DHT22;27814;53.452;-6.180;2022-08-25T03:16:46;17.60;96.20
41816;DHT22;27814;53.452;-6.180;2022-08-25T03:19:16;17.60;96.20
41816;DHT22;27814;53.452;-6.180;2022-08-25T03:21:44;17.60;96.30
41816;DHT22;27814;53.452;-6.180;2022-08-25T03:24:13;17.50;96.30
41816;DHT22;27814;53.452;-6.180;2022-08-25T03:26:41;17.50;96.30
41816;DHT22;27814;53.452;-6.180;2022-08-25T03:29:22;17.50;96.40
41816;DHT22;27814;53.452;-6.180;2022-08-25T03:31:51;17.50;96.40
41816;DHT22;27814;53.452;-6.180;2022-08-25T03:34:22;17.50;96.50
41816;DHT22;27814;53.452;-6.180;2022-08-25T03:36:51;17.50;96.60
41816;DHT22;27814;53.452;-6.180;2022-08-25T03:39:23;17.50;96.60
41816;DHT22;27814;53.452;-6.180;2022-08-25T03:41:52;17.50;96.70
41816;DHT22;27814;53.452;-6.180;2022-08-25T03:44:21;17.40;96.80
41816;DHT22;27814;53.452;-6.180;2022-08-25T03:46:50;17.40;96.90
41816;DHT22;27814;53.452;-6.180;2022-08-25T03:49:22;17.40;97.00
41816;DHT22;27814;53.452;-6.180;2022-08-25T03:51:52;17.40;97.00
41816;DHT22;27814;53.452;-6.180;2022-08-25T03:54:23;17.40;97.10
41816;DHT22;27814;53.452;-6.180;2022-08-25T03:56:52;17.40;97.20
41816;DHT22;27814;53.452;-6.180;2022-08-25T03:59:21;17.40;97.20
41816;DHT22;27814;53.452;-6.180;2022-08-25T04:01:49;17.40;97.30
41816;DHT22;27814;53.452;-6.180;2022-08-25T04:04:23;17.30;97.30
41816;DHT22;27814;53.452;-6.180;2022-08-25T04:06:51;17.30;97.30
41816;DHT22;27814;53.452;-6.180;2022-08-25T04:09:20;17.30;97.40
41816;DHT22;27814;53.452;-6.180;2022-08-25T04:11:48;17.30;97.40
41816;DHT22;27814;53.452;-6.180;2022-08-25T04:14:20;17.30;97.50
41816;DHT22;27814;53.452;-6.180;2022-08-25T04:16:50;17.30;97.60
41816;DHT22;27814;53.452;-6.180;2022-08-25T04:19:19;17.30;97.70
41816;DHT22;27814;53.452;-6.180;2022-08-25T04:21:49;17.30;97.80
41816;DHT22;27814;53.452;-6.180;2022-08-25T04:24:22;17.20;97.80
41816;DHT22;27814;53.452;-6.180;2022-08-25T04:26:51;17.20;97.90
41816;DHT22;27814;53.452;-6.180;2022-08-25T04:29:22;17.10;98.00
41816;DHT22;27814;53.452;-6.180;2022-08-25T04:31:51;17.10;98.10
41816;DHT22;27814;53.452;-6.180;2022-08-25T04:34:22;17.00;98.20
41816;DHT22;27814;53.452;-6.180;2022-08-25T04:37:00;17.00;98.30
41816;DHT22;27814;53.452;-6.180;2022-08-25T04:39:29;17.00;98.40
41816;DHT22;27814;53.452;-6.180;2022-08-25T04:41:57;16.90;98.50
41816;DHT22;27814;53.452;-6.180;2022-08-25T04:44:27;16.90;98.60
41816;DHT22;27814;53.452;-6.180;2022-08-25T04:46:55;16.90;99.00
41816;DHT22;27814;53.452;-6.180;2022-08-25T04:49:24;16.80;98.80
41816;DHT22;27814;53.452;-6.180;2022-08-25T04:51:52;16.80;98.90
41816;DHT22;27814;53.452;-6.180;2022-08-25T04:54:23;16.80;99.00
41816;DHT22;27814;53.452;-6.180;2022-08-25T04:56:52;16.80;99.10
41816;DHT22;27814;53.452;-6.180;2022-08-25T04:59:25;16.80;99.10
41816;DHT22;27814;53.452;-6.180;2022-08-25T05:01:57;16.80;99.20
41816;DHT22;27814;53.452;-6.180;2022-08-25T05:04:29;16.80;99.20
41816;DHT22;27814;53.452;-6.180;2022-08-25T05:06:58;16.70;99.30
41816;DHT22;27814;53.452;-6.180;2022-08-25T05:09:28;16.70;99.40
41816;DHT22;27814;53.452;-6.180;2022-08-25T05:12:00;16.70;99.50
41816;DHT22;27814;53.452;-6.180;2022-08-25T05:14:29;16.70;99.60
41816;DHT22;27814;53.452;-6.180;2022-08-25T05:16:58;16.60;99.60
41816;DHT22;27814;53.452;-6.180;2022-08-25T05:19:26;16.60;99.60
41816;DHT22;27814;53.452;-6.180;2022-08-25T05:21:55;16.50;99.70
41816;DHT22;27814;53.452;-6.180;2022-08-25T05:24:24;16.50;99.80
41816;DHT22;27814;53.452;-6.180;2022-08-25T05:26:55;16.50;99.90
41816;DHT22;27814;53.452;-6.180;2022-08-25T05:29:24;16.50;99.90
41816;DHT22;27814;53.452;-6.180;2022-08-25T05:31:53;16.50;99.90
41816;DHT22;27814;53.452;-6.180;2022-08-25T05:34:21;16.50;99.90
41816;DHT22;27814;53.452;-6.180;2022-08-25T05:36:50;16.50;99.90
41816;DHT22;27814;53.452;-6.180;2022-08-25T05:39:19;16.50;99.90
41816;DHT22;27814;53.452;-6.180;2022-08-25T05:41:47;16.50;99.90
41816;DHT22;27814;53.452;-6.180;2022-08-25T05:44:16;16.40;99.90
41816;DHT22;27814;53.452;-6.180;2022-08-25T05:46:48;16.50;99.90
41816;DHT22;27814;53.452;-6.180;2022-08-25T05:49:17;16.50;99.90
41816;DHT22;27814;53.452;-6.180;2022-08-25T05:51:46;16.50;99.90
41816;DHT22;27814;53.452;-6.180;2022-08-25T05:54:14;16.50;99.80
41816;DHT22;27814;53.452;-6.180;2022-08-25T05:56:43;16.50;99.80
41816;DHT22;27814;53.452;-6.180;2022-08-25T05:59:12;16.50;99.80
41816;DHT22;27814;53.452;-6.180;2022-08-25T06:01:42;16.60;99.70
41816;DHT22;27814;53.452;-6.180;2022-08-25T06:04:28;16.60;99.70
41816;DHT22;27814;53.452;-6.180;2022-08-25T06:06:56;16.70;99.60
41816;DHT22;27814;53.452;-6.180;2022-08-25T06:09:25;16.70;99.50
41816;DHT22;27814;53.452;-6.180;2022-08-25T06:11:53;16.60;99.50
41816;DHT22;27814;53.452;-6.180;2022-08-25T06:14:22;16.60;99.60
41816;DHT22;27814;53.452;-6.180;2022-08-25T06:16:52;16.60;99.60
41816;DHT22;27814;53.452;-6.180;2022-08-25T06:19:21;16.60;99.70
41816;DHT22;27814;53.452;-6.180;2022-08-25T06:21:53;16.60;99.70
41816;DHT22;27814;53.452;-6.180;2022-08-25T06:24:23;16.60;99.80
41816;DHT22;27814;53.452;-6.180;2022-08-25T06:26:52;16.70;99.80
41816;DHT22;27814;53.452;-6.180;2022-08-25T06:29:21;16.70;99.70
41816;DHT22;27814;53.452;-6.180;2022-08-25T06:31:49;16.70;99.70
41816;DHT22;27814;53.452;-6.180;2022-08-25T06:34:19;16.70;99.90
41816;DHT22;27814;53.452;-6.180;2022-08-25T06:36:50;16.70;99.80
41816;DHT22;27814;53.452;-6.180;2022-08-25T06:39:18;16.80;99.80
41816;DHT22;27814;53.452;-6.180;2022-08-25T06:41:50;16.80;99.80
41816;DHT22;27814;53.452;-6.180;2022-08-25T06:44:18;16.70;99.80
41816;DHT22;27814;53.452;-6.180;2022-08-25T06:46:48;16.70;99.90
41816;DHT22;27814;53.452;-6.180;2022-08-25T06:49:16;16.70;99.90
41816;DHT22;27814;53.452;-6.180;2022-08-25T06:51:46;16.70;99.90
41816;DHT22;27814;53.452;-6.180;2022-08-25T06:54:15;16.80;99.90
41816;DHT22;27814;53.452;-6.180;2022-08-25T06:56:43;16.70;99.90
41816;DHT22;27814;53.452;-6.180;2022-08-25T06:59:16;16.80;99.90
41816;DHT22;27814;53.452;-6.180;2022-08-25T07:01:45;16.80;99.90
41816;DHT22;27814;53.452;-6.180;2022-08-25T07:04:16;16.80;99.90
41816;DHT22;27814;53.452;-6.180;2022-08-25T07:06:46;16.80;99.90
41816;DHT22;27814;53.452;-6.180;2022-08-25T07:09:14;16.80;99.90
41816;DHT22;27814;53.452;-6.180;2022-08-25T07:11:43;16.80;99.90
41816;DHT22;27814;53.452;-6.180;2022-08-25T07:14:14;16.80;99.90
41816;DHT22;27814;53.452;-6.180;2022-08-25T07:16:43;16.90;99.90
41816;DHT22;27814;53.452;-6.180;2022-08-25T07:19:16;16.80;99.90
41816;DHT22;27814;53.452;-6.180;2022-08-25T07:21:50;16.80;99.90
41816;DHT22;27814;53.452;-6.180;2022-08-25T07:24:19;16.80;99.90
41816;DHT22;27814;53.452;-6.180;2022-08-25T07:26:48;16.80;99.90
41816;DHT22;27814;53.452;-6.180;2022-08-25T07:29:19;16.80;99.90
41816;DHT22;27814;53.452;-6.180;2022-08-25T07:31:59;16.80;99.90
41816;DHT22;27814;53.452;-6.180;2022-08-25T07:34:28;16.80;99.90
41816;DHT22;27814;53.452;-6.180;2022-08-25T07:37:21;16.90;99.90
41816;DHT22;27814;53.452;-6.180;2022-08-25T07:40:12;16.90;99.90
41816;DHT22;27814;53.452;-6.180;2022-08-25T07:42:42;16.90;99.90
41816;DHT22;27814;53.452;-6.180;2022-08-25T07:45:11;17.00;99.90
41816;DHT22;27814;53.452;-6.180;2022-08-25T07:47:43;17.00;99.90
41816;DHT22;27814;53.452;-6.180;2022-08-25T07:50:12;17.00;99.90
41816;DHT22;27814;53.452;-6.180;2022-08-25T07:52:42;17.10;99.90
41816;DHT22;27814;53.452;-6.180;2022-08-25T07:55:19;17.30;99.90
41816;DHT22;27814;53.452;-6.180;2022-08-25T07:57:47;17.30;99.90
41816;DHT22;27814;53.452;-6.180;2022-08-25T08:00:22;17.50;99.90
41816;DHT22;27814;53.452;-6.180;2022-08-25T08:02:54;17.50;99.70
41816;DHT22;27814;53.452;-6.180;2022-08-25T08:05:24;17.60;99.60
41816;DHT22;27814;53.452;-6.180;2022-08-25T08:07:54;17.70;99.40
41816;DHT22;27814;53.452;-6.180;2022-08-25T08:10:24;17.70;99.30
41816;DHT22;27814;53.452;-6.180;2022-08-25T08:13:13;17.80;99.30
41816;DHT22;27814;53.452;-6.180;2022-08-25T08:15:45;17.80;98.90
41816;DHT22;27814;53.452;-6.180;2022-08-25T08:18:14;17.90;98.80
41816;DHT22;27814;53.452;-6.180;2022-08-25T08:20:45;17.80;98.70
41816;DHT22;27814;53.452;-6.180;2022-08-25T08:23:15;17.80;98.70
41816;DHT22;27814;53.452;-6.180;2022-08-25T08:25:43;17.70;98.60
41816;DHT22;27814;53.452;-6.180;2022-08-25T08:28:12;17.60;98.60
41816;DHT22;27814;53.452;-6.180;2022-08-25T08:30:40;17.60;98.60
41816;DHT22;27814;53.452;-6.180;2022-08-25T08:33:21;17.60;98.70
41816;DHT22;27814;53.452;-6.180;2022-08-25T08:35:55;17.60;98.60
41816;DHT22;27814;53.452;-6.180;2022-08-25T08:38:27;17.60;98.50
41816;DHT22;27814;53.452;-6.180;2022-08-25T08:41:02;17.60;98.40
41816;DHT22;27814;53.452;-6.180;2022-08-25T08:43:55;17.60;98.50
41816;DHT22;27814;53.452;-6.180;2022-08-25T08:46:35;17.70;98.30
41816;DHT22;27814;53.452;-6.180;2022-08-25T08:49:14;17.70;98.00
41816;DHT22;27814;53.452;-6.180;2022-08-25T08:51:57;17.70;98.00
41816;DHT22;27814;53.452;-6.180;2022-08-25T08:54:31;17.70;97.80
41816;DHT22;27814;53.452;-6.180;2022-08-25T08:57:08;17.70;97.70
41816;DHT22;27814;53.452;-6.180;2022-08-25T08:59:44;17.70;97.60
41816;DHT22;27814;53.452;-6.180;2022-08-25T09:02:22;17.70;97.40
41816;DHT22;27814;53.452;-6.180;2022-08-25T09:05:13;17.70;97.30
41816;DHT22;27814;53.452;-6.180;2022-08-25T09:07:46;17.80;97.20
41816;DHT22;27814;53.452;-6.180;2022-08-25T09:10:23;17.80;96.80
41816;DHT22;27814;53.452;-6.180;2022-08-25T09:12:59;17.80;96.80
41816;DHT22;27814;53.452;-6.180;2022-08-25T09:15:43;17.90;96.60
41816;DHT22;27814;53.452;-6.180;2022-08-25T09:18:34;17.90;96.30
41816;DHT22;27814;53.452;-6.180;2022-08-25T09:21:27;18.00;96.10
41816;DHT22;27814;53.452;-6.180;2022-08-25T09:24:31;17.90;95.90
41816;DHT22;27814;53.452;-6.180;2022-08-25T09:27:12;18.00;95.90
41816;DHT22;27814;53.452;-6.180;2022-08-25T09:29:51;18.00;96.00
41816;DHT22;27814;53.452;-6.180;2022-08-25T09:32:25;18.00;95.70
41816;DHT22;27814;53.452;-6.180;2022-08-25T09:34:58;18.00;95.20
41816;DHT22;27814;53.452;-6.180;2022-08-25T09:37:27;18.00;94.90
41816;DHT22;27814;53.452;-6.180;2022-08-25T09:39:58;18.10;95.00
41816;DHT22;27814;53.452;-6.180;2022-08-25T09:42:49;18.10;94.90
41816;DHT22;27814;53.452;-6.180;2022-08-25T09:45:40;18.20;94.80
41816;DHT22;27814;53.452;-6.180;2022-08-25T09:48:22;18.20;94.80
41816;DHT22;27814;53.452;-6.180;2022-08-25T09:50:56;18.30;94.40
41816;DHT22;27814;53.452;-6.180;2022-08-25T09:53:27;18.30;94.20
41816;DHT22;27814;53.452;-6.180;2022-08-25T09:56:02;18.40;93.90
41816;DHT22;27814;53.452;-6.180;2022-08-25T09:58:34;18.40;93.70
41816;DHT22;27814;53.452;-6.180;2022-08-25T10:01:11;18.40;93.70
41816;DHT22;27814;53.452;-6.180;2022-08-25T10:03:58;18.50;93.60
41816;DHT22;27814;53.452;-6.180;2022-08-25T10:06:29;18.60;93.40
41816;DHT22;27814;53.452;-6.180;2022-08-25T10:09:03;18.60;93.00
41816;DHT22;27814;53.452;-6.180;2022-08-25T10:11:43;18.70;92.80
41816;DHT22;27814;53.452;-6.180;2022-08-25T10:14:21;18.70;92.90
41816;DHT22;27814;53.452;-6.180;2022-08-25T10:17:13;18.70;92.80
41816;DHT22;27814;53.452;-6.180;2022-08-25T10:19:42;18.80;92.70
41816;DHT22;27814;53.452;-6.180;2022-08-25T10:22:19;18.80;92.60
41816;DHT22;27814;53.452;-6.180;2022-08-25T10:24:48;18.80;92.60
41816;DHT22;27814;53.452;-6.180;2022-08-25T10:27:21;18.90;92.60
41816;DHT22;27814;53.452;-6.180;2022-08-25T10:30:08;19.00;92.30
41816;DHT22;27814;53.452;-6.180;2022-08-25T10:32:50;19.00;91.90
41816;DHT22;27814;53.452;-6.180;2022-08-25T10:35:28;19.10;91.80
41816;DHT22;27814;53.452;-6.180;2022-08-25T10:38:05;19.10;91.80
41816;DHT22;27814;53.452;-6.180;2022-08-25T10:40:41;19.20;91.70
41816;DHT22;27814;53.452;-6.180;2022-08-25T10:43:16;19.30;91.10
41816;DHT22;27814;53.452;-6.180;2022-08-25T10:45:56;19.40;90.70
41816;DHT22;27814;53.452;-6.180;2022-08-25T10:48:47;19.40;90.40
41816;DHT22;27814;53.452;-6.180;2022-08-25T10:51:44;19.40;90.40
41816;DHT22;27814;53.452;-6.180;2022-08-25T10:54:26;19.50;89.50
41816;DHT22;27814;53.452;-6.180;2022-08-25T10:57:01;19.60;89.30
41816;DHT22;27814;53.452;-6.180;2022-08-25T10:59:56;19.60;89.20
41816;DHT22;27814;53.452;-6.180;2022-08-25T11:05:37;19.70;88.80
41816;DHT22;27814;53.452;-6.180;2022-08-25T11:08:11;19.80;88.60
41816;DHT22;27814;53.452;-6.180;2022-08-25T11:10:45;19.90;87.00
41816;DHT22;27814;53.452;-6.180;2022-08-25T11:13:21;19.90;86.50
41816;DHT22;27814;53.452;-6.180;2022-08-25T11:15:54;20.00;86.20
41816;DHT22;27814;53.452;-6.180;2022-08-25T11:18:49;20.10;86.20
41816;DHT22;27814;53.452;-6.180;2022-08-25T11:21:22;20.30;86.80
41816;DHT22;27814;53.452;-6.180;2022-08-25T11:23:59;20.30;86.00
41816;DHT22;27814;53.452;-6.180;2022-08-25T11:26:34;20.40;85.60
41816;DHT22;27814;53.452;-6.180;2022-08-25T11:29:11;20.50;85.00
41816;DHT22;27814;53.452;-6.180;2022-08-25T11:31:45;20.50;84.60
41816;DHT22;27814;53.452;-6.180;2022-08-25T11:34:21;20.60;84.20
41816;DHT22;27814;53.452;-6.180;2022-08-25T11:36:52;20.50;84.00
41816;DHT22;27814;53.452;-6.180;2022-08-25T11:39:32;20.70;84.20
41816;DHT22;27814;53.452;-6.180;2022-08-25T11:42:15;20.70;83.50
41816;DHT22;27814;53.452;-6.180;2022-08-25T11:44:57;20.80;83.40
41816;DHT22;27814;53.452;-6.180;2022-08-25T11:47:48;20.90;83.50
41816;DHT22;27814;53.452;-6.180;2022-08-25T11:50:30;20.90;83.10
41816;DHT22;27814;53.452;-6.180;2022-08-25T11:53:18;20.90;82.60
41816;DHT22;27814;53.452;-6.180;2022-08-25T11:55:54;20.80;82.40
41816;DHT22;27814;53.452;-6.180;2022-08-25T11:58:43;20.80;81.90
41816;DHT22;27814;53.452;-6.180;2022-08-25T12:04:37;20.90;80.50
41816;DHT22;27814;53.452;-6.180;2022-08-25T12:07:25;21.00;80.10
41816;DHT22;27814;53.452;-6.180;2022-08-25T12:10:12;21.10;79.40
41816;DHT22;27814;53.452;-6.180;2022-08-25T12:12:58;21.20;79.20
41816;DHT22;27814;53.452;-6.180;2022-08-25T12:15:27;21.30;79.20
41816;DHT22;27814;53.452;-6.180;2022-08-25T12:18:11;21.30;79.50
41816;DHT22;27814;53.452;-6.180;2022-08-25T12:21:15;21.50;79.70
41816;DHT22;27814;53.452;-6.180;2022-08-25T12:24:12;21.50;79.20
41816;DHT22;27814;53.452;-6.180;2022-08-25T12:26:48;21.60;79.20
41816;DHT22;27814;53.452;-6.180;2022-08-25T12:29:32;21.60;79.00
41816;DHT22;27814;53.452;-6.180;2022-08-25T12:32:18;21.60;79.10
41816;DHT22;27814;53.452;-6.180;2022-08-25T12:35:08;21.60;79.00
41816;DHT22;27814;53.452;-6.180;2022-08-25T12:37:54;21.60;79.20
41816;DHT22;27814;53.452;-6.180;2022-08-25T12:40:28;21.60;79.30
41816;DHT22;27814;53.452;-6.180;2022-08-25T12:43:07;21.50;79.40
41816;DHT22;27814;53.452;-6.180;2022-08-25T12:45:44;21.50;78.90
41816;DHT22;27814;53.452;-6.180;2022-08-25T12:48:53;21.60;78.90
41816;DHT22;27814;53.452;-6.180;2022-08-25T12:51:24;21.60;78.70
41816;DHT22;27814;53.452;-6.180;2022-08-25T12:53:58;21.60;78.20
41816;DHT22;27814;53.452;-6.180;2022-08-25T12:56:34;21.70;77.30
41816;DHT22;27814;53.452;-6.180;2022-08-25T12:59:14;21.70;76.80
41816;DHT22;27814;53.452;-6.180;2022-08-25T13:01:57;21.80;76.40
41816;DHT22;27814;53.452;-6.180;2022-08-25T13:04:46;21.80;76.30
41816;DHT22;27814;53.452;-6.180;2022-08-25T13:07:29;21.90;76.50
41816;DHT22;27814;53.452;-6.180;2022-08-25T13:10:23;22.00;76.20
41816;DHT22;27814;53.452;-6.180;2022-08-25T13:12:59;22.10;75.50
41816;DHT22;27814;53.452;-6.180;2022-08-25T13:15:35;22.10;74.80
41816;DHT22;27814;53.452;-6.180;2022-08-25T13:18:18;22.10;74.50
41816;DHT22;27814;53.452;-6.180;2022-08-25T13:20:50;22.10;74.40
41816;DHT22;27814;53.452;-6.180;2022-08-25T13:23:24;22.10;74.40
41816;DHT22;27814;53.452;-6.180;2022-08-25T13:25:55;22.00;74.70
41816;DHT22;27814;53.452;-6.180;2022-08-25T13:28:30;22.10;74.90
41816;DHT22;27814;53.452;-6.180;2022-08-25T13:31:03;22.10;74.40
41816;DHT22;27814;53.452;-6.180;2022-08-25T13:33:33;22.30;73.60
41816;DHT22;27814;53.452;-6.180;2022-08-25T13:36:02;22.30;74.30
41816;DHT22;27814;53.452;-6.180;2022-08-25T13:38:49;22.40;74.10
41816;DHT22;27814;53.452;-6.180;2022-08-25T13:41:24;22.50;73.70
41816;DHT22;27814;53.452;-6.180;2022-08-25T13:43:57;22.60;73.00
41816;DHT22;27814;53.452;-6.180;2022-08-25T13:46:28;22.70;73.00
41816;DHT22;27814;53.452;-6.180;2022-08-25T13:49:04;22.70;71.90
41816;DHT22;27814;53.452;-6.180;2022-08-25T13:51:35;22.80;71.10
41816;DHT22;27814;53.452;-6.180;2022-08-25T13:54:18;22.80;70.90
41816;DHT22;27814;53.452;-6.180;2022-08-25T13:56:48;22.80;70.90
41816;DHT22;27814;53.452;-6.180;2022-08-25T13:59:23;22.70;70.30
41816;DHT22;27814;53.452;-6.180;2022-08-25T14:01:53;22.70;69.90
41816;DHT22;27814;53.452;-6.180;2022-08-25T14:04:26;22.60;70.10
41816;DHT22;27814;53.452;-6.180;2022-08-25T14:07:15;22.50;70.10
41816;DHT22;27814;53.452;-6.180;2022-08-25T14:09:54;22.50;69.90
41816;DHT22;27814;53.452;-6.180;2022-08-25T14:12:31;22.30;70.30
41816;DHT22;27814;53.452;-6.180;2022-08-25T14:15:07;22.30;70.90
41816;DHT22;27814;53.452;-6.180;2022-08-25T14:17:38;22.30;71.50
41816;DHT22;27814;53.452;-6.180;2022-08-25T14:20:21;22.30;71.70
41816;DHT22;27814;53.452;-6.180;2022-08-25T14:22:54;22.30;71.70
41816;DHT22;27814;53.452;-6.180;2022-08-25T14:25:25;22.30;71.50
41816;DHT22;27814;53.452;-6.180;2022-08-25T14:27:57;22.40;71.40
41816;DHT22;27814;53.452;-6.180;2022-08-25T14:30:42;22.40;71.30
41816;DHT22;27814;53.452;-6.180;2022-08-25T14:33:14;22.40;71.40
41816;DHT22;27814;53.452;-6.180;2022-08-25T14:35:45;22.50;71.00
41816;DHT22;27814;53.452;-6.180;2022-08-25T14:38:15;22.50;71.00
41816;DHT22;27814;53.452;-6.180;2022-08-25T14:40:46;22.60;70.90
41816;DHT22;27814;53.452;-6.180;2022-08-25T14:43:16;22.60;70.70
41816;DHT22;27814;53.452;-6.180;2022-08-25T14:45:51;22.60;72.20
41816;DHT22;27814;53.452;-6.180;2022-08-25T14:48:25;22.60;73.80
41816;DHT22;27814;53.452;-6.180;2022-08-25T14:50:55;22.60;74.20
41816;DHT22;27814;53.452;-6.180;2022-08-25T14:53:23;22.50;75.10
41816;DHT22;27814;53.452;-6.180;2022-08-25T14:55:52;22.40;77.70
41816;DHT22;27814;53.452;-6.180;2022-08-25T14:58:25;22.40;79.60
41816;DHT22;27814;53.452;-6.180;2022-08-25T15:01:01;22.30;80.70
41816;DHT22;27814;53.452;-6.180;2022-08-25T15:03:35;22.30;81.50
41816;DHT22;27814;53.452;-6.180;2022-08-25T15:06:05;22.30;82.40
41816;DHT22;27814;53.452;-6.180;2022-08-25T15:08:37;22.20;83.00
41816;DHT22;27814;53.452;-6.180;2022-08-25T15:11:23;22.20;83.30
41816;DHT22;27814;53.452;-6.180;2022-08-25T15:13:52;22.20;83.90
41816;DHT22;27814;53.452;-6.180;2022-08-25T15:16:24;22.10;84.10
41816;DHT22;27814;53.452;-6.180;2022-08-25T15:19:00;22.10;84.80
41816;DHT22;27814;53.452;-6.180;2022-08-25T15:21:33;22.10;85.30
41816;DHT22;27814;53.452;-6.180;2022-08-25T15:24:03;22.10;85.80
41816;DHT22;27814;53.452;-6.180;2022-08-25T15:26:39;22.00;86.40
41816;DHT22;27814;53.452;-6.180;2022-08-25T15:29:10;21.90;87.00
41816;DHT22;27814;53.452;-6.180;2022-08-25T15:31:40;21.90;87.80
41816;DHT22;27814;53.452;-6.180;2022-08-25T15:34:08;21.90;88.40
41816;DHT22;27814;53.452;-6.180;2022-08-25T15:36:38;21.90;89.00
41816;DHT22;27814;53.452;-6.180;2022-08-25T15:39:08;21.90;89.50
41816;DHT22;27814;53.452;-6.180;2022-08-25T15:41:37;21.90;89.60
41816;DHT22;27814;53.452;-6.180;2022-08-25T15:44:08;22.00;89.40
41816;DHT22;27814;53.452;-6.180;2022-08-25T15:46:40;22.00;89.10
41816;DHT22;27814;53.452;-6.180;2022-08-25T15:49:15;22.00;88.90
41816;DHT22;27814;53.452;-6.180;2022-08-25T15:51:49;22.00;89.30
41816;DHT22;27814;53.452;-6.180;2022-08-25T15:54:21;22.00;89.80
41816;DHT22;27814;53.452;-6.180;2022-08-25T15:56:53;21.90;90.00
41816;DHT22;27814;53.452;-6.180;2022-08-25T15:59:23;21.90;90.20
41816;DHT22;27814;53.452;-6.180;2022-08-25T16:01:55;21.90;90.50